sensor_id;sensor_type;location;lat;lon;timestamp;P1;durP1;ratioP1;P2;durP2;ratioP2
25111;SDS011;13092;51.996;4.458;2022-07-12T00:02:20;6.95;;;6.18;;
25111;SDS011;13092;51.996;4.458;2022-07-12T00:04:49;7.72;;;6.43;;
25111;SDS011;13092;51.996;4.458;2022-07-12T00:07:19;7.10;;;6.45;;
25111;SDS011;13092;51.996;4.458;2022-07-12T00:09:47;7.20;;;6.55;;
25111;SDS011;13092;51.996;4.458;2022-07-12T00:12:16;8.25;;;6.35;;
25111;SDS011;13092;51.996;4.458;2022-07-12T00:14:44;7.93;;;6.65;;
25111;SDS011;13092;51.996;4.458;2022-07-12T00:17:11;6.57;;;5.97;;
25111;SDS011;13092;51.996;4.458;2022-07-12T00:19:39;6.82;;;6.22;;
25111;SDS011;13092;51.996;4.458;2022-07-12T00:22:07;7.13;;;6.50;;
25111;SDS011;13092;51.996;4.458;2022-07-12T00:24:37;6.60;;;5.90;;
25111;SDS011;13092;51.996;4.458;2022-07-12T00:27:05;7.78;;;7.00;;
25111;SDS011;13092;51.996;4.458;2022-07-12T00:29:33;7.25;;;6.55;;
25111;SDS011;13092;51.996;4.458;2022-07-12T00:32:01;7.03;;;6.35;;
25111;SDS011;13092;51.996;4.458;2022-07-12T00:34:29;6.75;;;6.15;;
25111;SDS011;13092;51.996;4.458;2022-07-12T00:36:57;6.38;;;5.75;;
25111;SDS011;13092;51.996;4.458;2022-07-12T00:39:25;7.05;;;6.35;;
25111;SDS011;13092;51.996;4.458;2022-07-12T00:41:54;7.78;;;6.18;;
25111;SDS011;13092;51.996;4.458;2022-07-12T00:44:22;6.40;;;5.80;;
25111;SDS011;13092;51.996;4.458;2022-07-12T00:46:52;7.20;;;6.50;;
25111;SDS011;13092;51.996;4.458;2022-07-12T00:49:21;8.80;;;6.47;;
25111;SDS011;13092;51.996;4.458;2022-07-12T00:51:50;6.75;;;6.15;;
25111;SDS011;13092;51.996;4.458;2022-07-12T00:54:20;6.45;;;5.85;;
25111;SDS011;13092;51.996;4.458;2022-07-12T00:56:48;8.43;;;7.60;;
25111;SDS011;13092;51.996;4.458;2022-07-12T00:59:18;6.70;;;6.07;;
25111;SDS011;13092;51.996;4.458;2022-07-12T01:01:46;8.40;;;6.22;;
25111;SDS011;13092;51.996;4.458;2022-07-12T01:04:14;6.32;;;5.72;;
25111;SDS011;13092;51.996;4.458;2022-07-12T01:06:44;9.07;;;6.75;;
25111;SDS011;13092;51.996;4.458;2022-07-12T01:09:13;7.78;;;6.97;;
25111;SDS011;13092;51.996;4.458;2022-07-12T01:11:41;6.60;;;6.00;;
25111;SDS011;13092;51.996;4.458;2022-07-12T01:14:10;7.30;;;6.60;;
25111;SDS011;13092;51.996;4.458;2022-07-12T01:16:41;6.53;;;5.80;;
25111;SDS011;13092;51.996;4.458;2022-07-12T01:19:09;6.65;;;6.05;;
25111;SDS011;13092;51.996;4.458;2022-07-12T01:21:43;8.05;;;6.20;;
25111;SDS011;13092;51.996;4.458;2022-07-12T01:24:16;6.68;;;5.97;;
25111;SDS011;13092;51.996;4.458;2022-07-12T01:26:46;7.45;;;6.75;;
25111;SDS011;13092;51.996;4.458;2022-07-12T01:29:14;6.88;;;6.28;;
25111;SDS011;13092;51.996;4.458;2022-07-12T01:31:42;9.05;;;5.82;;
25111;SDS011;13092;51.996;4.458;2022-07-12T01:34:11;7.15;;;6.13;;
25111;SDS011;13092;51.996;4.458;2022-07-12T01:36:39;7.25;;;6.38;;
25111;SDS011;13092;51.996;4.458;2022-07-12T01:39:08;8.20;;;6.30;;
25111;SDS011;13092;51.996;4.458;2022-07-12T01:41:38;6.60;;;5.60;;
25111;SDS011;13092;51.996;4.458;2022-07-12T01:44:06;7.13;;;6.43;;
25111;SDS011;13092;51.996;4.458;2022-07-12T01:46:34;7.47;;;6.10;;
25111;SDS011;13092;51.996;4.458;2022-07-12T01:49:02;7.70;;;6.47;;
25111;SDS011;13092;51.996;4.458;2022-07-12T01:51:31;7.63;;;6.85;;
25111;SDS011;13092;51.996;4.458;2022-07-12T01:53:59;7.20;;;6.53;;
25111;SDS011;13092;51.996;4.458;2022-07-12T01:56:28;8.93;;;6.50;;
25111;SDS011;13092;51.996;4.458;2022-07-12T01:58:57;7.30;;;6.57;;
25111;SDS011;13092;51.996;4.458;2022-07-12T02:01:27;6.53;;;5.90;;
25111;SDS011;13092;51.996;4.458;2022-07-12T02:03:55;6.70;;;6.10;;
25111;SDS011;13092;51.996;4.458;2022-07-12T02:06:23;6.20;;;5.60;;
25111;SDS011;13092;51.996;4.458;2022-07-12T02:08:52;6.60;;;5.93;;
25111;SDS011;13092;51.996;4.458;2022-07-12T02:11:20;6.20;;;5.68;;
25111;SDS011;13092;51.996;4.458;2022-07-12T02:13:48;8.13;;;6.68;;
25111;SDS011;13092;51.996;4.458;2022-07-12T02:16:17;8.52;;;6.88;;
25111;SDS011;13092;51.996;4.458;2022-07-12T02:18:45;7.55;;;6.47;;
25111;SDS011;13092;51.996;4.458;2022-07-12T02:21:13;7.93;;;5.68;;
25111;SDS011;13092;51.996;4.458;2022-07-12T02:23:44;7.60;;;6.68;;
25111;SDS011;13092;51.996;4.458;2022-07-12T02:26:12;8.70;;;6.65;;
25111;SDS011;13092;51.996;4.458;2022-07-12T02:28:41;7.25;;;6.18;;
25111;SDS011;13092;51.996;4.458;2022-07-12T02:31:09;9.52;;;6.38;;
25111;SDS011;13092;51.996;4.458;2022-07-12T02:33:39;8.85;;;6.63;;
25111;SDS011;13092;51.996;4.458;2022-07-12T02:36:07;7.63;;;6.43;;
25111;SDS011;13092;51.996;4.458;2022-07-12T02:38:36;6.47;;;5.82;;
25111;SDS011;13092;51.996;4.458;2022-07-12T02:41:04;7.55;;;5.90;;
25111;SDS011;13092;51.996;4.458;2022-07-12T02:43:33;8.80;;;6.07;;
25111;SDS011;13092;51.996;4.458;2022-07-12T02:46:02;7.95;;;6.68;;
25111;SDS011;13092;51.996;4.458;2022-07-12T02:48:32;8.90;;;6.45;;
25111;SDS011;13092;51.996;4.458;2022-07-12T02:51:01;8.20;;;6.43;;
25111;SDS011;13092;51.996;4.458;2022-07-12T02:53:31;8.98;;;6.65;;
25111;SDS011;13092;51.996;4.458;2022-07-12T02:56:07;8.95;;;6.75;;
25111;SDS011;13092;51.996;4.458;2022-07-12T02:58:35;7.40;;;6.70;;
25111;SDS011;13092;51.996;4.458;2022-07-12T03:01:04;8.90;;;7.32;;
25111;SDS011;13092;51.996;4.458;2022-07-12T03:03:32;7.45;;;6.65;;
25111;SDS011;13092;51.996;4.458;2022-07-12T03:06:02;8.93;;;8.00;;
25111;SDS011;13092;51.996;4.458;2022-07-12T03:08:30;8.30;;;7.13;;
25111;SDS011;13092;51.996;4.458;2022-07-12T03:10:58;9.23;;;7.47;;
25111;SDS011;13092;51.996;4.458;2022-07-12T03:13:28;9.85;;;7.55;;
25111;SDS011;13092;51.996;4.458;2022-07-12T03:15:56;10.77;;;8.07;;
25111;SDS011;13092;51.996;4.458;2022-07-12T03:18:26;10.68;;;7.15;;
25111;SDS011;13092;51.996;4.458;2022-07-12T03:20:54;10.00;;;7.97;;
25111;SDS011;13092;51.996;4.458;2022-07-12T03:23:24;9.43;;;7.65;;
25111;SDS011;13092;51.996;4.458;2022-07-12T03:25:52;8.40;;;7.10;;
25111;SDS011;13092;51.996;4.458;2022-07-12T03:28:21;10.27;;;7.55;;
25111;SDS011;13092;51.996;4.458;2022-07-12T03:30:49;17.45;;;8.43;;
25111;SDS011;13092;51.996;4.458;2022-07-12T03:33:17;10.20;;;7.50;;
25111;SDS011;13092;51.996;4.458;2022-07-12T03:35:45;8.88;;;6.70;;
25111;SDS011;13092;51.996;4.458;2022-07-12T03:38:13;12.15;;;7.82;;
25111;SDS011;13092;51.996;4.458;2022-07-12T03:40:45;10.32;;;7.47;;
25111;SDS011;13092;51.996;4.458;2022-07-12T03:43:13;8.10;;;6.20;;
25111;SDS011;13092;51.996;4.458;2022-07-12T03:45:43;8.35;;;6.53;;
25111;SDS011;13092;51.996;4.458;2022-07-12T03:48:12;8.77;;;6.63;;
25111;SDS011;13092;51.996;4.458;2022-07-12T03:50:39;8.30;;;6.60;;
25111;SDS011;13092;51.996;4.458;2022-07-12T03:53:07;7.97;;;6.45;;
25111;SDS011;13092;51.996;4.458;2022-07-12T03:55:35;10.65;;;7.25;;
25111;SDS011;13092;51.996;4.458;2022-07-12T03:58:05;11.70;;;7.07;;
25111;SDS011;13092;51.996;4.458;2022-07-12T04:00:33;7.70;;;6.05;;
25111;SDS011;13092;51.996;4.458;2022-07-12T04:03:01;9.55;;;6.47;;
25111;SDS011;13092;51.996;4.458;2022-07-12T04:05:29;8.93;;;6.82;;
25111;SDS011;13092;51.996;4.458;2022-07-12T04:07:57;8.77;;;7.43;;
25111;SDS011;13092;51.996;4.458;2022-07-12T04:10:27;6.85;;;5.50;;
25111;SDS011;13092;51.996;4.458;2022-07-12T04:12:55;8.65;;;6.35;;
25111;SDS011;13092;51.996;4.458;2022-07-12T04:15:24;9.10;;;6.32;;
25111;SDS011;13092;51.996;4.458;2022-07-12T04:17:53;7.70;;;6.65;;
25111;SDS011;13092;51.996;4.458;2022-07-12T04:20:21;9.35;;;7.07;;
25111;SDS011;13092;51.996;4.458;2022-07-12T04:22:48;9.73;;;7.90;;
25111;SDS011;13092;51.996;4.458;2022-07-12T04:25:17;11.23;;;7.15;;
25111;SDS011;13092;51.996;4.458;2022-07-12T04:27:45;10.00;;;7.43;;
25111;SDS011;13092;51.996;4.458;2022-07-12T04:30:13;8.35;;;6.85;;
25111;SDS011;13092;51.996;4.458;2022-07-12T04:32:43;10.73;;;7.60;;
25111;SDS011;13092;51.996;4.458;2022-07-12T04:35:11;11.38;;;7.95;;
25111;SDS011;13092;51.996;4.458;2022-07-12T04:37:39;8.98;;;6.95;;
25111;SDS011;13092;51.996;4.458;2022-07-12T04:40:07;7.97;;;7.15;;
25111;SDS011;13092;51.996;4.458;2022-07-12T04:42:36;10.70;;;7.65;;
25111;SDS011;13092;51.996;4.458;2022-07-12T04:45:04;8.43;;;7.45;;
25111;SDS011;13092;51.996;4.458;2022-07-12T04:47:34;10.35;;;7.57;;
25111;SDS011;13092;51.996;4.458;2022-07-12T04:50:05;10.75;;;6.90;;
25111;SDS011;13092;51.996;4.458;2022-07-12T04:52:33;9.93;;;7.18;;
25111;SDS011;13092;51.996;4.458;2022-07-12T04:55:02;11.88;;;7.68;;
25111;SDS011;13092;51.996;4.458;2022-07-12T04:57:30;9.68;;;7.53;;
25111;SDS011;13092;51.996;4.458;2022-07-12T05:00:00;11.48;;;7.40;;
25111;SDS011;13092;51.996;4.458;2022-07-12T05:02:30;10.45;;;7.90;;
25111;SDS011;13092;51.996;4.458;2022-07-12T05:04:59;9.27;;;7.25;;
25111;SDS011;13092;51.996;4.458;2022-07-12T05:07:28;9.90;;;7.75;;
25111;SDS011;13092;51.996;4.458;2022-07-12T05:09:57;11.55;;;7.55;;
25111;SDS011;13092;51.996;4.458;2022-07-12T05:12:25;8.68;;;7.25;;
25111;SDS011;13092;51.996;4.458;2022-07-12T05:14:53;13.85;;;8.43;;
25111;SDS011;13092;51.996;4.458;2022-07-12T05:17:21;12.00;;;7.82;;
25111;SDS011;13092;51.996;4.458;2022-07-12T05:19:49;11.30;;;8.95;;
25111;SDS011;13092;51.996;4.458;2022-07-12T05:22:17;11.90;;;9.15;;
25111;SDS011;13092;51.996;4.458;2022-07-12T05:24:46;9.63;;;8.13;;
25111;SDS011;13092;51.996;4.458;2022-07-12T05:27:14;9.68;;;8.10;;
25111;SDS011;13092;51.996;4.458;2022-07-12T05:29:42;12.70;;;9.05;;
25111;SDS011;13092;51.996;4.458;2022-07-12T05:32:10;11.90;;;7.95;;
25111;SDS011;13092;51.996;4.458;2022-07-12T05:34:38;14.13;;;8.43;;
25111;SDS011;13092;51.996;4.458;2022-07-12T05:37:06;11.60;;;8.40;;
25111;SDS011;13092;51.996;4.458;2022-07-12T05:39:34;12.95;;;8.20;;
25111;SDS011;13092;51.996;4.458;2022-07-12T05:42:11;12.32;;;8.48;;
25111;SDS011;13092;51.996;4.458;2022-07-12T05:44:39;11.55;;;8.77;;
25111;SDS011;13092;51.996;4.458;2022-07-12T05:47:07;12.75;;;8.43;;
25111;SDS011;13092;51.996;4.458;2022-07-12T05:49:35;12.50;;;8.25;;
25111;SDS011;13092;51.996;4.458;2022-07-12T05:52:04;16.88;;;9.52;;
25111;SDS011;13092;51.996;4.458;2022-07-12T05:54:50;12.38;;;9.45;;
25111;SDS011;13092;51.996;4.458;2022-07-12T05:57:19;12.18;;;8.93;;
25111;SDS011;13092;51.996;4.458;2022-07-12T05:59:47;14.20;;;9.18;;
25111;SDS011;13092;51.996;4.458;2022-07-12T06:02:16;12.73;;;9.38;;
25111;SDS011;13092;51.996;4.458;2022-07-12T06:04:44;14.95;;;8.80;;
25111;SDS011;13092;51.996;4.458;2022-07-12T06:07:16;11.68;;;8.68;;
25111;SDS011;13092;51.996;4.458;2022-07-12T06:09:44;13.07;;;7.75;;
25111;SDS011;13092;51.996;4.458;2022-07-12T06:12:13;13.57;;;8.82;;
25111;SDS011;13092;51.996;4.458;2022-07-12T06:14:42;12.27;;;8.80;;
25111;SDS011;13092;51.996;4.458;2022-07-12T06:17:10;9.25;;;7.80;;
25111;SDS011;13092;51.996;4.458;2022-07-12T06:19:38;10.98;;;7.72;;
25111;SDS011;13092;51.996;4.458;2022-07-12T06:22:06;9.15;;;7.45;;
25111;SDS011;13092;51.996;4.458;2022-07-12T06:24:34;12.48;;;7.22;;
25111;SDS011;13092;51.996;4.458;2022-07-12T06:27:02;9.68;;;7.18;;
25111;SDS011;13092;51.996;4.458;2022-07-12T06:29:30;11.20;;;7.20;;
25111;SDS011;13092;51.996;4.458;2022-07-12T06:32:00;8.57;;;7.43;;
25111;SDS011;13092;51.996;4.458;2022-07-12T06:34:28;9.82;;;7.75;;
25111;SDS011;13092;51.996;4.458;2022-07-12T06:36:56;10.75;;;7.30;;
25111;SDS011;13092;51.996;4.458;2022-07-12T06:39:24;8.50;;;6.90;;
25111;SDS011;13092;51.996;4.458;2022-07-12T06:41:52;11.35;;;7.45;;
25111;SDS011;13092;51.996;4.458;2022-07-12T06:44:20;7.90;;;6.65;;
25111;SDS011;13092;51.996;4.458;2022-07-12T06:46:50;9.38;;;7.10;;
25111;SDS011;13092;51.996;4.458;2022-07-12T06:49:19;10.52;;;7.63;;
25111;SDS011;13092;51.996;4.458;2022-07-12T06:51:48;8.77;;;7.18;;
25111;SDS011;13092;51.996;4.458;2022-07-12T06:54:16;7.85;;;6.93;;
25111;SDS011;13092;51.996;4.458;2022-07-12T06:56:44;8.52;;;6.97;;
25111;SDS011;13092;51.996;4.458;2022-07-12T06:59:12;7.97;;;6.97;;
25111;SDS011;13092;51.996;4.458;2022-07-12T07:01:41;10.35;;;7.00;;
25111;SDS011;13092;51.996;4.458;2022-07-12T07:04:10;8.07;;;6.50;;
25111;SDS011;13092;51.996;4.458;2022-07-12T07:06:39;9.15;;;7.35;;
25111;SDS011;13092;51.996;4.458;2022-07-12T07:09:07;7.70;;;6.70;;
25111;SDS011;13092;51.996;4.458;2022-07-12T07:11:36;10.55;;;6.50;;
25111;SDS011;13092;51.996;4.458;2022-07-12T07:14:04;9.38;;;6.60;;
25111;SDS011;13092;51.996;4.458;2022-07-12T07:16:32;8.07;;;6.65;;
25111;SDS011;13092;51.996;4.458;2022-07-12T07:19:00;8.70;;;6.65;;
25111;SDS011;13092;51.996;4.458;2022-07-12T07:21:29;9.95;;;6.88;;
25111;SDS011;13092;51.996;4.458;2022-07-12T07:23:58;8.98;;;6.25;;
25111;SDS011;13092;51.996;4.458;2022-07-12T07:26:26;10.05;;;6.10;;
25111;SDS011;13092;51.996;4.458;2022-07-12T07:28:54;7.03;;;5.93;;
25111;SDS011;13092;51.996;4.458;2022-07-12T07:31:39;7.40;;;5.85;;
25111;SDS011;13092;51.996;4.458;2022-07-12T07:34:07;8.70;;;5.82;;
25111;SDS011;13092;51.996;4.458;2022-07-12T07:36:35;10.05;;;5.95;;
25111;SDS011;13092;51.996;4.458;2022-07-12T07:39:05;8.55;;;5.90;;
25111;SDS011;13092;51.996;4.458;2022-07-12T07:41:33;7.35;;;5.57;;
25111;SDS011;13092;51.996;4.458;2022-07-12T07:44:01;8.30;;;6.20;;
25111;SDS011;13092;51.996;4.458;2022-07-12T07:46:29;8.88;;;6.32;;
25111;SDS011;13092;51.996;4.458;2022-07-12T07:48:57;7.75;;;6.22;;
25111;SDS011;13092;51.996;4.458;2022-07-12T07:51:26;9.80;;;5.90;;
25111;SDS011;13092;51.996;4.458;2022-07-12T07:53:54;9.32;;;6.22;;
25111;SDS011;13092;51.996;4.458;2022-07-12T07:56:23;9.55;;;7.30;;
25111;SDS011;13092;51.996;4.458;2022-07-12T07:58:51;8.18;;;6.40;;
25111;SDS011;13092;51.996;4.458;2022-07-12T08:01:19;9.63;;;7.43;;
25111;SDS011;13092;51.996;4.458;2022-07-12T08:04:08;10.45;;;7.30;;
25111;SDS011;13092;51.996;4.458;2022-07-12T08:06:37;9.30;;;7.50;;
25111;SDS011;13092;51.996;4.458;2022-07-12T08:09:08;9.88;;;6.97;;
25111;SDS011;13092;51.996;4.458;2022-07-12T08:11:40;9.10;;;7.05;;
25111;SDS011;13092;51.996;4.458;2022-07-12T08:14:09;11.02;;;7.10;;
25111;SDS011;13092;51.996;4.458;2022-07-12T08:16:37;9.43;;;7.70;;
25111;SDS011;13092;51.996;4.458;2022-07-12T08:19:06;9.35;;;6.43;;
25111;SDS011;13092;51.996;4.458;2022-07-12T08:21:34;14.30;;;6.30;;
25111;SDS011;13092;51.996;4.458;2022-07-12T08:24:03;7.13;;;5.35;;
25111;SDS011;13092;51.996;4.458;2022-07-12T08:26:34;7.15;;;5.50;;
25111;SDS011;13092;51.996;4.458;2022-07-12T08:29:04;8.57;;;6.43;;
25111;SDS011;13092;51.996;4.458;2022-07-12T08:31:38;8.90;;;6.28;;
25111;SDS011;13092;51.996;4.458;2022-07-12T08:34:07;8.63;;;6.30;;
25111;SDS011;13092;51.996;4.458;2022-07-12T08:36:35;9.80;;;5.35;;
25111;SDS011;13092;51.996;4.458;2022-07-12T08:39:03;7.70;;;5.38;;
25111;SDS011;13092;51.996;4.458;2022-07-12T08:41:31;8.05;;;5.53;;
25111;SDS011;13092;51.996;4.458;2022-07-12T08:43:59;9.02;;;6.00;;
25111;SDS011;13092;51.996;4.458;2022-07-12T08:46:30;6.35;;;5.00;;
25111;SDS011;13092;51.996;4.458;2022-07-12T08:49:04;8.57;;;5.57;;
25111;SDS011;13092;51.996;4.458;2022-07-12T08:51:33;8.20;;;5.90;;
25111;SDS011;13092;51.996;4.458;2022-07-12T08:54:04;11.13;;;5.55;;
25111;SDS011;13092;51.996;4.458;2022-07-12T08:56:34;7.70;;;4.95;;
25111;SDS011;13092;51.996;4.458;2022-07-12T08:59:08;7.22;;;4.68;;
25111;SDS011;13092;51.996;4.458;2022-07-12T09:01:42;7.95;;;5.35;;
25111;SDS011;13092;51.996;4.458;2022-07-12T09:04:12;5.88;;;4.70;;
25111;SDS011;13092;51.996;4.458;2022-07-12T09:06:41;9.27;;;5.20;;
25111;SDS011;13092;51.996;4.458;2022-07-12T09:09:09;7.53;;;4.65;;
25111;SDS011;13092;51.996;4.458;2022-07-12T09:11:38;9.27;;;4.30;;
25111;SDS011;13092;51.996;4.458;2022-07-12T09:14:06;7.95;;;4.68;;
25111;SDS011;13092;51.996;4.458;2022-07-12T09:16:34;8.80;;;5.10;;
25111;SDS011;13092;51.996;4.458;2022-07-12T09:19:14;7.70;;;4.90;;
25111;SDS011;13092;51.996;4.458;2022-07-12T09:21:46;8.73;;;5.43;;
25111;SDS011;13092;51.996;4.458;2022-07-12T09:24:17;9.52;;;5.22;;
25111;SDS011;13092;51.996;4.458;2022-07-12T09:26:46;8.48;;;5.57;;
25111;SDS011;13092;51.996;4.458;2022-07-12T09:29:14;8.50;;;4.80;;
25111;SDS011;13092;51.996;4.458;2022-07-12T09:31:43;6.47;;;4.80;;
25111;SDS011;13092;51.996;4.458;2022-07-12T09:34:34;6.72;;;5.25;;
25111;SDS011;13092;51.996;4.458;2022-07-12T09:37:20;9.25;;;5.43;;
25111;SDS011;13092;51.996;4.458;2022-07-12T09:39:48;8.55;;;4.70;;
25111;SDS011;13092;51.996;4.458;2022-07-12T09:42:18;8.82;;;5.18;;
25111;SDS011;13092;51.996;4.458;2022-07-12T09:44:53;10.13;;;5.35;;
25111;SDS011;13092;51.996;4.458;2022-07-12T09:47:23;8.25;;;5.20;;
25111;SDS011;13092;51.996;4.458;2022-07-12T09:49:53;7.07;;;5.05;;
25111;SDS011;13092;51.996;4.458;2022-07-12T09:52:22;9.75;;;5.30;;
25111;SDS011;13092;51.996;4.458;2022-07-12T09:54:52;6.90;;;5.00;;
25111;SDS011;13092;51.996;4.458;2022-07-12T09:57:24;9.70;;;5.53;;
25111;SDS011;13092;51.996;4.458;2022-07-12T09:59:53;9.63;;;5.13;;
25111;SDS011;13092;51.996;4.458;2022-07-12T10:02:22;8.60;;;5.28;;
25111;SDS011;13092;51.996;4.458;2022-07-12T10:04:51;7.20;;;4.32;;
25111;SDS011;13092;51.996;4.458;2022-07-12T10:07:21;7.03;;;4.38;;
25111;SDS011;13092;51.996;4.458;2022-07-12T10:09:50;9.30;;;5.70;;
25111;SDS011;13092;51.996;4.458;2022-07-12T10:12:20;6.68;;;5.00;;
25111;SDS011;13092;51.996;4.458;2022-07-12T10:14:51;8.35;;;5.47;;
25111;SDS011;13092;51.996;4.458;2022-07-12T10:17:24;8.32;;;6.28;;
25111;SDS011;13092;51.996;4.458;2022-07-12T10:20:12;9.85;;;6.57;;
25111;SDS011;13092;51.996;4.458;2022-07-12T10:22:46;9.23;;;6.65;;
25111;SDS011;13092;51.996;4.458;2022-07-12T10:25:30;8.70;;;6.05;;
25111;SDS011;13092;51.996;4.458;2022-07-12T10:28:00;7.97;;;6.22;;
25111;SDS011;13092;51.996;4.458;2022-07-12T10:30:29;9.70;;;6.10;;
25111;SDS011;13092;51.996;4.458;2022-07-12T10:32:58;7.40;;;5.10;;
25111;SDS011;13092;51.996;4.458;2022-07-12T10:35:27;5.30;;;4.80;;
25111;SDS011;13092;51.996;4.458;2022-07-12T10:38:20;6.60;;;5.15;;
25111;SDS011;13092;51.996;4.458;2022-07-12T10:40:49;10.57;;;4.88;;
25111;SDS011;13092;51.996;4.458;2022-07-12T10:43:18;8.05;;;4.20;;
25111;SDS011;13092;51.996;4.458;2022-07-12T10:46:18;5.68;;;5.07;;
25111;SDS011;13092;51.996;4.458;2022-07-12T10:48:49;6.60;;;4.13;;
25111;SDS011;13092;51.996;4.458;2022-07-12T10:51:17;6.75;;;4.13;;
25111;SDS011;13092;51.996;4.458;2022-07-12T10:53:48;6.90;;;4.18;;
25111;SDS011;13092;51.996;4.458;2022-07-12T10:56:18;5.47;;;4.03;;
25111;SDS011;13092;51.996;4.458;2022-07-12T10:58:56;5.10;;;4.25;;
25111;SDS011;13092;51.996;4.458;2022-07-12T11:01:26;5.70;;;4.10;;
25111;SDS011;13092;51.996;4.458;2022-07-12T11:03:56;5.35;;;3.70;;
25111;SDS011;13092;51.996;4.458;2022-07-12T11:06:33;5.35;;;4.28;;
25111;SDS011;13092;51.996;4.458;2022-07-12T11:09:04;6.05;;;3.80;;
25111;SDS011;13092;51.996;4.458;2022-07-12T11:11:34;5.63;;;3.78;;
25111;SDS011;13092;51.996;4.458;2022-07-12T11:14:07;7.03;;;4.63;;
25111;SDS011;13092;51.996;4.458;2022-07-12T11:16:42;4.85;;;3.50;;
25111;SDS011;13092;51.996;4.458;2022-07-12T11:19:11;5.38;;;3.35;;
25111;SDS011;13092;51.996;4.458;2022-07-12T11:21:42;5.88;;;3.92;;
25111;SDS011;13092;51.996;4.458;2022-07-12T11:24:16;6.18;;;3.10;;
25111;SDS011;13092;51.996;4.458;2022-07-12T11:26:44;6.72;;;3.10;;
25111;SDS011;13092;51.996;4.458;2022-07-12T11:29:12;5.97;;;3.22;;
25111;SDS011;13092;51.996;4.458;2022-07-12T11:31:41;5.35;;;3.25;;
25111;SDS011;13092;51.996;4.458;2022-07-12T11:34:18;6.93;;;3.25;;
25111;SDS011;13092;51.996;4.458;2022-07-12T11:36:47;4.18;;;2.70;;
25111;SDS011;13092;51.996;4.458;2022-07-12T11:39:30;5.95;;;3.10;;
25111;SDS011;13092;51.996;4.458;2022-07-12T11:41:59;4.57;;;2.80;;
25111;SDS011;13092;51.996;4.458;2022-07-12T11:44:40;4.97;;;3.00;;
25111;SDS011;13092;51.996;4.458;2022-07-12T11:47:09;3.78;;;2.47;;
25111;SDS011;13092;51.996;4.458;2022-07-12T11:49:41;6.07;;;2.83;;
25111;SDS011;13092;51.996;4.458;2022-07-12T11:52:12;3.63;;;2.65;;
25111;SDS011;13092;51.996;4.458;2022-07-12T11:54:42;3.65;;;2.80;;
25111;SDS011;13092;51.996;4.458;2022-07-12T11:57:10;6.72;;;2.90;;
25111;SDS011;13092;51.996;4.458;2022-07-12T11:59:39;2.85;;;2.50;;
25111;SDS011;13092;51.996;4.458;2022-07-12T12:02:08;5.00;;;2.67;;
25111;SDS011;13092;51.996;4.458;2022-07-12T12:04:45;4.72;;;2.88;;
25111;SDS011;13092;51.996;4.458;2022-07-12T12:07:14;2.97;;;2.63;;
25111;SDS011;13092;51.996;4.458;2022-07-12T12:10:01;6.03;;;2.75;;
25111;SDS011;13092;51.996;4.458;2022-07-12T12:12:37;2.40;;;2.20;;
25111;SDS011;13092;51.996;4.458;2022-07-12T12:15:07;6.30;;;2.60;;
25111;SDS011;13092;51.996;4.458;2022-07-12T12:17:37;4.43;;;2.50;;
25111;SDS011;13092;51.996;4.458;2022-07-12T12:20:10;2.88;;;2.20;;
25111;SDS011;13092;51.996;4.458;2022-07-12T12:22:40;3.67;;;2.15;;
25111;SDS011;13092;51.996;4.458;2022-07-12T12:25:10;3.17;;;2.22;;
25111;SDS011;13092;51.996;4.458;2022-07-12T12:27:44;2.90;;;2.10;;
25111;SDS011;13092;51.996;4.458;2022-07-12T12:30:34;2.20;;;2.10;;
25111;SDS011;13092;51.996;4.458;2022-07-12T12:33:32;3.83;;;1.90;;
25111;SDS011;13092;51.996;4.458;2022-07-12T12:36:10;3.17;;;2.28;;
25111;SDS011;13092;51.996;4.458;2022-07-12T12:38:43;4.60;;;1.88;;
25111;SDS011;13092;51.996;4.458;2022-07-12T12:41:13;3.20;;;1.83;;
25111;SDS011;13092;51.996;4.458;2022-07-12T12:43:42;5.22;;;1.90;;
25111;SDS011;13092;51.996;4.458;2022-07-12T12:46:11;3.13;;;1.88;;
25111;SDS011;13092;51.996;4.458;2022-07-12T12:48:45;3.05;;;1.60;;
25111;SDS011;13092;51.996;4.458;2022-07-12T12:51:18;2.88;;;2.10;;
25111;SDS011;13092;51.996;4.458;2022-07-12T12:53:54;8.45;;;2.15;;
25111;SDS011;13092;51.996;4.458;2022-07-12T12:56:25;5.43;;;2.10;;
25111;SDS011;13092;51.996;4.458;2022-07-12T12:58:53;2.30;;;2.10;;
25111;SDS011;13092;51.996;4.458;2022-07-12T13:01:21;3.63;;;1.85;;
25111;SDS011;13092;51.996;4.458;2022-07-12T13:03:49;2.35;;;1.88;;
25111;SDS011;13092;51.996;4.458;2022-07-12T13:06:18;5.38;;;2.30;;
25111;SDS011;13092;51.996;4.458;2022-07-12T13:08:48;6.03;;;2.28;;
25111;SDS011;13092;51.996;4.458;2022-07-12T13:11:16;2.30;;;2.10;;
25111;SDS011;13092;51.996;4.458;2022-07-12T13:13:50;3.60;;;2.10;;
25111;SDS011;13092;51.996;4.458;2022-07-12T13:16:20;7.88;;;2.42;;
25111;SDS011;13092;51.996;4.458;2022-07-12T13:18:48;6.97;;;2.40;;
25111;SDS011;13092;51.996;4.458;2022-07-12T13:21:16;2.58;;;2.10;;
25111;SDS011;13092;51.996;4.458;2022-07-12T13:23:44;4.45;;;2.30;;
25111;SDS011;13092;51.996;4.458;2022-07-12T13:26:12;5.07;;;2.65;;
25111;SDS011;13092;51.996;4.458;2022-07-12T13:28:40;3.25;;;2.20;;
25111;SDS011;13092;51.996;4.458;2022-07-12T13:31:10;4.15;;;2.30;;
25111;SDS011;13092;51.996;4.458;2022-07-12T13:33:38;5.07;;;2.47;;
25111;SDS011;13092;51.996;4.458;2022-07-12T13:36:07;3.60;;;2.40;;
25111;SDS011;13092;51.996;4.458;2022-07-12T13:38:35;6.78;;;2.80;;
25111;SDS011;13092;51.996;4.458;2022-07-12T13:41:03;5.68;;;2.90;;
25111;SDS011;13092;51.996;4.458;2022-07-12T13:43:32;8.25;;;3.78;;
25111;SDS011;13092;51.996;4.458;2022-07-12T13:46:00;7.38;;;3.50;;
25111;SDS011;13092;51.996;4.458;2022-07-12T13:48:30;7.85;;;3.53;;
25111;SDS011;13092;51.996;4.458;2022-07-12T13:50:59;7.68;;;3.13;;
25111;SDS011;13092;51.996;4.458;2022-07-12T13:53:47;8.23;;;3.30;;
25111;SDS011;13092;51.996;4.458;2022-07-12T13:56:15;9.50;;;3.40;;
25111;SDS011;13092;51.996;4.458;2022-07-12T13:58:43;15.63;;;3.03;;
25111;SDS011;13092;51.996;4.458;2022-07-12T14:01:12;7.38;;;3.33;;
25111;SDS011;13092;51.996;4.458;2022-07-12T14:03:41;13.48;;;3.75;;
25111;SDS011;13092;51.996;4.458;2022-07-12T14:06:09;5.63;;;3.17;;
25111;SDS011;13092;51.996;4.458;2022-07-12T14:08:38;6.63;;;3.10;;
25111;SDS011;13092;51.996;4.458;2022-07-12T14:11:06;5.93;;;3.20;;
25111;SDS011;13092;51.996;4.458;2022-07-12T14:13:34;7.65;;;3.60;;
25111;SDS011;13092;51.996;4.458;2022-07-12T14:16:03;4.57;;;3.38;;
25111;SDS011;13092;51.996;4.458;2022-07-12T14:18:31;6.47;;;3.25;;
25111;SDS011;13092;51.996;4.458;2022-07-12T14:21:01;5.18;;;3.40;;
25111;SDS011;13092;51.996;4.458;2022-07-12T14:23:32;9.45;;;3.75;;
25111;SDS011;13092;51.996;4.458;2022-07-12T14:26:00;5.13;;;3.60;;
25111;SDS011;13092;51.996;4.458;2022-07-12T14:28:31;8.68;;;4.07;;
25111;SDS011;13092;51.996;4.458;2022-07-12T14:31:02;6.82;;;3.60;;
25111;SDS011;13092;51.996;4.458;2022-07-12T14:33:36;11.63;;;3.70;;
25111;SDS011;13092;51.996;4.458;2022-07-12T14:36:12;11.43;;;3.58;;
25111;SDS011;13092;51.996;4.458;2022-07-12T14:38:47;6.78;;;3.20;;
25111;SDS011;13092;51.996;4.458;2022-07-12T14:41:23;6.38;;;3.05;;
25111;SDS011;13092;51.996;4.458;2022-07-12T14:43:52;4.88;;;3.17;;
25111;SDS011;13092;51.996;4.458;2022-07-12T14:46:31;4.13;;;2.88;;
25111;SDS011;13092;51.996;4.458;2022-07-12T14:49:04;5.72;;;3.00;;
25111;SDS011;13092;51.996;4.458;2022-07-12T14:54:53;5.78;;;2.80;;
25111;SDS011;13092;51.996;4.458;2022-07-12T14:57:29;4.80;;;2.88;;
25111;SDS011;13092;51.996;4.458;2022-07-12T14:59:57;8.68;;;3.20;;
25111;SDS011;13092;51.996;4.458;2022-07-12T15:02:25;7.75;;;3.28;;
25111;SDS011;13092;51.996;4.458;2022-07-12T15:04:54;3.70;;;2.80;;
25111;SDS011;13092;51.996;4.458;2022-07-12T15:07:23;5.65;;;2.72;;